Adamsville, Rhode Island
Current Conditions -  °F | °C
As of 5:53 PM on Friday 19 Dec 2014 (Local Time) from KUUU Reporting Station
Overcast Overcast  
Wind Chill: 25°   Ceiling: 3200
Heat Index: 34°   Visibility: 10mi
Dew Point: 22°   Wind: 14mph
Humidity: 61%   Direction: 320°NW
Pressure: 30.03"   Gusts: 18mph
Location:  41.55°N, 71.13°W
Report Text: KUUU 192253Z AUTO 32012G16KT 10SM OVC032 01/M06 A3003 RMK AO2 SLP169 T00111056
Loading
Personal Weather Stations






























Interactive Weather Map New forecast layout! Learn more

10-Day Weather Forecast

Advertisements
Track Severe Weather on mobile